Time;durP1;ratioP1;P1;durP2;ratioP2;P2;SDS_P1;SDS_P2;PMS_P1;PMS_P2;Temp;Humidity;BMP_temperature;BMP_pressure;BME280_temperature;BME280_humidity;BME280_pressure;Samples;Min_cycle;Max_cycle;Signal;HPM_P1;HPM_P2
2022/03/21 00:01:39;;;;;;;10.25;6.90;;;6.90;47.80;;;;;;5011997;28;20021;-58
2022/03/21 00:04:05;;;;;;;12.18;6.65;;;6.90;47.60;;;;;;5012600;28;20044;-58
2022/03/21 00:06:30;;;;;;;10.80;8.80;;;6.90;48.00;;;;;;5009893;28;20029;-58
2022/03/21 00:08:56;;;;;;;13.80;8.45;;;6.80;48.10;;;;;;5013850;28;20034;-57
2022/03/21 00:11:22;;;;;;;9.63;6.80;;;6.80;48.00;;;;;;5010032;28;20039;-56
2022/03/21 00:13:49;;;;;;;10.93;6.70;;;6.80;48.40;;;;;;5010204;28;20033;-56
2022/03/21 00:16:15;;;;;;;13.80;8.23;;;6.80;48.20;;;;;;5014172;28;20036;-57
2022/03/21 00:18:40;;;;;;;13.23;8.52;;;6.80;48.10;;;;;;5010480;28;20026;-57
2022/03/21 00:21:06;;;;;;;10.93;6.93;;;6.70;48.50;;;;;;5011306;28;20034;-56
2022/03/21 00:23:32;;;;;;;13.02;7.68;;;6.70;48.80;;;;;;5019737;28;20387;-58
2022/03/21 00:25:57;;;;;;;;;;;6.60;48.70;;;;;;5009640;28;20117;-56
2022/03/21 00:28:23;;;;;;;9.75;6.60;;;6.60;48.60;;;;;;5008567;28;20352;-57
2022/03/21 00:30:49;;;;;;;13.20;7.47;;;6.60;48.90;;;;;;5009973;28;20041;-54
2022/03/21 00:33:14;;;;;;;12.25;7.10;;;6.60;48.90;;;;;;5008772;28;20041;-55
2022/03/21 00:35:42;;;;;;;11.40;7.57;;;6.60;49.20;;;;;;5010127;28;20069;-57
2022/03/21 00:38:13;;;;;;;12.88;8.00;;;6.50;49.20;;;;;;5010844;28;20516;-56
2022/03/21 00:40:39;;;;;;;11.85;7.63;;;6.50;49.90;;;;;;5012798;28;20034;-57
2022/03/21 00:43:04;;;;;;;14.88;8.80;;;6.50;49.50;;;;;;5011607;28;20972;-57
2022/03/21 00:45:30;;;;;;;13.55;8.50;;;6.50;49.60;;;;;;5010353;28;20033;-55
2022/03/21 00:47:55;;;;;;;15.48;8.05;;;6.40;49.70;;;;;;5008447;28;20040;-57
2022/03/21 00:50:24;;;;;;;11.48;6.47;;;6.40;49.90;;;;;;5011343;28;20037;-56
2022/03/21 00:52:56;;;;;;;10.00;6.63;;;6.30;49.90;;;;;;5009908;28;20884;-54
2022/03/21 00:55:28;;;;;;;16.15;8.90;;;6.30;49.90;;;;;;5012649;28;20045;-58
2022/03/21 00:57:55;;;;;;;14.05;8.88;;;6.30;49.80;;;;;;5013611;28;20113;-55
2022/03/21 01:00:24;;;;;;;15.70;8.70;;;6.30;50.00;;;;;;5008281;28;20998;-56
2022/03/21 01:02:49;;;;;;;14.43;7.40;;;6.30;50.30;;;;;;5010453;28;20104;-55
2022/03/21 01:05:15;;;;;;;14.48;8.18;;;6.20;50.40;;;;;;5008523;28;20668;-56
2022/03/21 01:07:41;;;;;;;11.98;7.28;;;6.20;50.50;;;;;;5009973;28;20033;-55
2022/03/21 01:10:09;;;;;;;13.80;7.65;;;6.10;50.60;;;;;;5009318;28;20037;-56
2022/03/21 01:12:35;;;;;;;15.35;7.68;;;6.10;51.00;;;;;;5009808;28;20025;-57
2022/03/21 01:15:03;;;;;;;13.30;8.02;;;6.10;50.80;;;;;;5012815;28;20030;-54
2022/03/21 01:17:28;;;;;;;11.07;7.10;;;6.00;51.40;;;;;;5008404;28;20030;-56
2022/03/21 01:19:54;;;;;;;14.98;9.52;;;6.00;51.10;;;;;;5009280;28;20144;-57
2022/03/21 01:22:20;;;;;;;13.55;8.57;;;5.90;51.00;;;;;;5008564;28;20034;-56
2022/03/21 01:24:45;;;;;;;11.93;8.27;;;5.90;51.60;;;;;;5010199;28;20128;-55
2022/03/21 01:27:11;;;;;;;15.77;9.43;;;5.90;51.90;;;;;;5010046;28;20121;-57
2022/03/21 01:29:37;;;;;;;13.63;8.48;;;5.80;52.00;;;;;;5012650;28;20088;-56
2022/03/21 01:32:03;;;;;;;13.23;8.35;;;5.80;52.10;;;;;;5007517;28;20798;-56
2022/03/21 01:34:29;;;;;;;14.90;8.13;;;5.70;52.20;;;;;;5008021;28;20036;-56
2022/03/21 01:36:55;;;;;;;14.40;9.25;;;5.70;52.50;;;;;;5011706;28;20033;-56
2022/03/21 01:39:20;;;;;;;;;;;5.70;52.60;;;;;;5009046;28;20065;-56
2022/03/21 01:41:46;;;;;;;11.60;7.43;;;5.70;52.80;;;;;;5007154;28;19948;-56
2022/03/21 01:44:13;;;;;;;13.00;8.32;;;5.60;52.80;;;;;;5008139;28;20133;-57
2022/03/21 01:46:39;;;;;;;17.08;10.82;;;5.60;53.50;;;;;;5007913;28;20115;-55
2022/03/21 01:49:08;;;;;;;12.93;8.25;;;5.60;53.40;;;;;;5009759;28;20886;-56
2022/03/21 01:51:36;;;;;;;13.43;7.35;;;5.60;53.70;;;;;;5013568;28;20037;-56
2022/03/21 01:56:47;;;;;;;16.05;9.10;;;5.60;53.60;;;;;;5012732;28;20061;-56
2022/03/21 01:59:14;;;;;;;12.52;8.38;;;5.50;53.70;;;;;;5008302;28;20030;-55
2022/03/21 02:01:41;;;;;;;15.20;7.82;;;5.50;54.20;;;;;;5008490;28;20076;-57
2022/03/21 02:04:07;;;;;;;16.42;8.77;;;5.40;54.40;;;;;;5008657;28;20038;-57
2022/03/21 02:06:32;;;;;;;;;;;5.40;54.50;;;;;;5016355;28;20983;-53
2022/03/21 02:09:00;;;;;;;13.80;8.57;;;5.40;54.70;;;;;;5006926;28;19912;-56
2022/03/21 02:11:26;;;;;;;18.83;9.27;;;5.40;55.00;;;;;;5008582;28;20034;-57
2022/03/21 02:13:56;;;;;;;16.17;8.65;;;5.40;55.20;;;;;;5008130;28;20112;-57
2022/03/21 02:16:23;;;;;;;16.08;9.38;;;5.40;55.50;;;;;;5009606;28;20410;-57
2022/03/21 02:18:49;;;;;;;12.57;9.45;;;5.30;55.60;;;;;;5011870;28;20033;-55
2022/03/21 02:21:22;;;;;;;14.38;9.23;;;5.30;56.20;;;;;;5010599;28;20029;-54
2022/03/21 02:24:03;;;;;;;23.13;14.32;;;5.20;56.50;;;;;;5008868;28;20526;-55
2022/03/21 02:26:29;;;;;;;35.85;19.65;;;5.20;57.20;;;;;;5007425;28;20483;-56
2022/03/21 02:28:56;;;;;;;20.08;12.20;;;5.20;58.00;;;;;;5011663;28;20049;-57
2022/03/21 02:31:24;;;;;;;20.40;11.30;;;5.20;57.70;;;;;;5010196;28;20041;-55
2022/03/21 02:33:52;;;;;;;15.70;9.68;;;5.10;58.20;;;;;;5011503;28;20541;-54
2022/03/21 02:36:19;;;;;;;14.35;9.15;;;5.10;58.50;;;;;;5015450;28;20041;-54
2022/03/21 02:38:46;;;;;;;16.67;9.77;;;5.10;58.90;;;;;;5006825;28;20044;-53
2022/03/21 02:41:14;;;;;;;15.25;9.80;;;5.10;59.40;;;;;;5006519;28;20458;-57
2022/03/21 02:43:50;;;;;;;17.65;9.82;;;5.10;59.50;;;;;;5006581;28;20018;-55
2022/03/21 02:46:17;;;;;;;15.00;8.38;;;5.10;59.80;;;;;;5009620;28;20034;-55
2022/03/21 02:48:44;;;;;;;12.98;8.38;;;5.00;60.70;;;;;;5011901;28;20084;-57
2022/03/21 02:51:10;;;;;;;22.33;10.32;;;5.00;61.10;;;;;;5013472;28;20645;-57
2022/03/21 02:53:38;;;;;;;15.13;9.55;;;5.00;61.50;;;;;;5011632;28;20116;-56
2022/03/21 02:56:03;;;;;;;15.82;8.43;;;5.00;61.20;;;;;;5008291;28;20076;-56
2022/03/21 02:58:29;;;;;;;13.40;9.43;;;4.90;62.60;;;;;;5019966;28;20057;-57
2022/03/21 03:01:08;;;;;;;13.73;8.90;;;4.90;62.70;;;;;;5011639;28;20399;-55
2022/03/21 03:03:34;;;;;;;13.77;8.27;;;4.80;63.10;;;;;;5010878;28;20025;-56
2022/03/21 03:06:00;;;;;;;15.65;10.20;;;4.80;64.10;;;;;;5011527;28;20032;-55
2022/03/21 03:08:25;;;;;;;16.33;9.98;;;4.80;65.20;;;;;;5010865;28;20148;-56
2022/03/21 03:10:51;;;;;;;20.27;8.85;;;4.80;65.20;;;;;;5011031;28;20038;-57
2022/03/21 03:13:16;;;;;;;18.95;10.80;;;4.90;65.20;;;;;;5009563;28;20088;-57
2022/03/21 03:15:41;;;;;;;18.23;9.30;;;4.90;65.10;;;;;;5011085;28;20125;-57
2022/03/21 03:18:07;;;;;;;14.82;8.93;;;4.80;65.80;;;;;;5011999;28;20693;-58
2022/03/21 03:20:32;;;;;;;17.75;9.48;;;4.80;66.00;;;;;;5011631;28;20091;-55
2022/03/21 03:23:01;;;;;;;18.83;9.65;;;4.80;66.20;;;;;;5010597;28;20033;-57
2022/03/21 03:25:27;;;;;;;11.93;8.18;;;4.80;66.00;;;;;;5014287;28;20041;-56
2022/03/21 03:27:53;;;;;;;15.88;8.10;;;4.80;67.10;;;;;;5010578;28;20029;-56
2022/03/21 03:30:18;;;;;;;17.23;9.25;;;4.70;66.90;;;;;;5017713;28;20038;-52
2022/03/21 03:32:45;;;;;;;16.23;10.30;;;4.70;68.60;;;;;;5010736;28;20125;-56
2022/03/21 03:35:11;;;;;;;13.93;8.63;;;4.70;68.40;;;;;;5011261;28;20079;-55
2022/03/21 03:37:37;;;;;;;12.95;8.68;;;4.70;68.50;;;;;;5010550;28;20057;-55
2022/03/21 03:40:03;;;;;;;14.10;8.82;;;4.60;69.90;;;;;;5010425;28;20030;-56
2022/03/21 03:42:28;;;;;;;15.35;10.95;;;4.70;70.10;;;;;;5013743;28;20109;-55
2022/03/21 03:44:54;;;;;;;14.13;9.70;;;4.70;70.10;;;;;;5012605;28;20112;-55
2022/03/21 03:47:20;;;;;;;17.92;10.48;;;4.60;70.50;;;;;;5009162;28;20030;-56
2022/03/21 03:49:45;;;;;;;16.55;9.85;;;4.60;71.50;;;;;;5014531;28;20029;-56
2022/03/21 03:52:11;;;;;;;19.83;10.35;;;4.60;70.60;;;;;;5011886;28;20073;-54
2022/03/21 03:54:36;;;;;;;21.42;10.90;;;4.60;70.90;;;;;;5011761;28;20026;-55
2022/03/21 03:57:02;;;;;;;20.27;11.23;;;4.60;71.70;;;;;;5009993;28;20045;-56
2022/03/21 03:59:28;;;;;;;18.35;8.57;;;4.50;72.50;;;;;;5011015;28;20422;-55
2022/03/21 04:01:53;;;;;;;15.27;9.10;;;4.50;73.10;;;;;;5011540;28;20044;-55
2022/03/21 04:04:19;;;;;;;19.08;9.45;;;4.50;73.80;;;;;;5009658;28;20033;-55
2022/03/21 04:06:45;;;;;;;18.80;10.13;;;4.50;73.20;;;;;;5014795;28;20034;-56
2022/03/21 04:09:11;;;;;;;19.35;12.90;;;4.50;73.10;;;;;;5016103;28;20112;-57
2022/03/21 04:11:36;;;;;;;17.55;10.18;;;4.50;73.80;;;;;;5009909;28;20084;-54
2022/03/21 04:14:02;;;;;;;16.33;10.13;;;4.40;74.30;;;;;;5010445;28;20033;-57
2022/03/21 04:16:27;;;;;;;15.55;9.80;;;4.50;74.40;;;;;;5009925;28;20036;-55
2022/03/21 04:18:53;;;;;;;16.15;10.30;;;4.40;75.20;;;;;;5012954;28;20034;-54
2022/03/21 04:21:18;;;;;;;16.15;9.50;;;4.40;75.70;;;;;;5008907;28;20168;-57
2022/03/21 04:23:44;;;;;;;16.27;9.80;;;4.40;75.00;;;;;;5009977;28;20022;-53
2022/03/21 04:26:12;;;;;;;15.63;9.55;;;4.40;75.30;;;;;;5010864;28;20041;-51
2022/03/21 04:28:37;;;;;;;15.13;9.52;;;4.40;76.20;;;;;;5009910;28;20387;-53
2022/03/21 04:31:03;;;;;;;17.58;10.07;;;4.30;76.50;;;;;;5010500;28;20029;-55
2022/03/21 04:33:29;;;;;;;20.50;10.18;;;4.30;75.90;;;;;;5009194;28;20718;-56
2022/03/21 04:35:54;;;;;;;14.55;9.40;;;4.30;76.40;;;;;;5014208;28;20033;-54
2022/03/21 04:38:20;;;;;;;15.15;11.82;;;4.30;77.20;;;;;;5017357;28;20037;-56
2022/03/21 04:40:47;;;;;;;18.83;10.95;;;4.30;77.40;;;;;;5013964;28;20461;-55
2022/03/21 04:43:15;;;;;;;14.55;9.43;;;4.30;77.00;;;;;;5010944;28;20045;-56
2022/03/21 04:45:42;;;;;;;14.63;8.85;;;4.20;78.60;;;;;;5013683;28;20034;-56
2022/03/21 04:48:07;;;;;;;14.75;9.45;;;4.20;78.00;;;;;;5014350;28;20510;-54
2022/03/21 04:50:34;;;;;;;20.55;14.07;;;4.20;78.80;;;;;;5014404;28;20041;-56
2022/03/21 04:52:59;;;;;;;;;;;4.10;79.20;;;;;;5010501;28;20045;-54
2022/03/21 04:55:25;;;;;;;12.73;8.27;;;4.20;79.90;;;;;;5013505;28;19909;-55
2022/03/21 04:57:51;;;;;;;;;;;4.20;79.70;;;;;;5011289;28;20042;-54
2022/03/21 05:00:17;;;;;;;17.23;9.50;;;4.10;79.40;;;;;;5018140;28;19967;-55
2022/03/21 05:02:42;;;;;;;21.10;9.77;;;4.10;80.10;;;;;;5017205;28;20444;-55
2022/03/21 05:05:10;;;;;;;18.65;10.48;;;4.20;79.80;;;;;;5013136;28;20037;-55
2022/03/21 05:07:52;;;;;;;18.88;10.95;;;4.10;79.80;;;;;;5016042;28;20499;-54
2022/03/21 05:10:18;;;;;;;17.00;10.88;;;4.10;79.80;;;;;;5008978;28;20107;-55
2022/03/21 05:12:44;;;;;;;;;;;4.00;80.60;;;;;;5014401;28;20113;-57
2022/03/21 05:15:10;;;;;;;20.08;9.27;;;4.00;81.70;;;;;;5009785;28;20437;-54
2022/03/21 05:17:36;;;;;;;17.05;10.57;;;4.00;81.90;;;;;;5016919;28;20033;-55
2022/03/21 05:20:08;;;;;;;19.67;12.63;;;4.10;81.20;;;;;;5009691;28;20124;-56
2022/03/21 05:22:35;;;;;;;16.27;10.65;;;4.10;80.80;;;;;;5012156;28;20033;-56
2022/03/21 05:35:57;;;;;;;20.70;12.18;;;3.90;82.20;;;;;;5027378;28;20049;-57
2022/03/21 05:38:28;;;;;;;16.77;10.13;;;3.90;82.50;;;;;;5027214;28;20420;-56
2022/03/21 05:40:58;;;;;;;17.45;10.60;;;4.00;82.60;;;;;;5020456;28;20038;-56
2022/03/21 05:43:24;;;;;;;14.15;10.10;;;4.00;82.40;;;;;;5023301;28;20447;-58
2022/03/21 05:45:51;;;;;;;16.30;10.00;;;4.00;82.20;;;;;;5023450;28;20116;-55
2022/03/21 05:51:02;;;;;;;19.00;10.55;;;4.00;82.80;;;;;;5025689;28;20041;-56
2022/03/21 05:53:27;;;;;;;16.85;10.20;;;4.00;81.80;;;;;;5026274;28;20468;-57
2022/03/21 05:55:55;;;;;;;16.88;10.43;;;4.10;81.80;;;;;;5027111;28;20033;-56
2022/03/21 05:58:21;;;;;;;17.83;9.77;;;4.00;82.30;;;;;;5026702;28;20033;-56
2022/03/21 06:00:46;;;;;;;15.95;10.70;;;4.10;82.70;;;;;;5025967;28;20464;-54
2022/03/21 06:03:12;;;;;;;17.10;10.63;;;4.10;83.00;;;;;;5026233;28;20098;-57
2022/03/21 06:05:38;;;;;;;17.75;10.52;;;4.10;82.60;;;;;;5025077;28;20474;-57
2022/03/21 06:08:04;;;;;;;18.02;12.02;;;4.10;82.20;;;;;;5025516;28;20083;-57
2022/03/21 06:10:30;;;;;;;23.05;11.95;;;4.10;83.40;;;;;;5025707;28;20041;-58
2022/03/21 06:12:55;;;;;;;19.25;11.95;;;4.10;84.40;;;;;;5025219;28;20037;-58
2022/03/21 06:15:21;;;;;;;19.80;11.07;;;4.20;83.20;;;;;;5024972;28;20042;-57
2022/03/21 06:17:47;;;;;;;15.55;10.13;;;4.20;84.10;;;;;;5025167;28;20120;-58
2022/03/21 06:20:14;;;;;;;16.48;10.25;;;4.20;82.80;;;;;;5024454;28;20079;-57
2022/03/21 06:22:40;;;;;;;17.40;10.23;;;4.20;82.10;;;;;;5022422;28;20025;-58
2022/03/21 06:25:07;;;;;;;16.40;9.98;;;4.20;82.80;;;;;;5025627;28;20249;-58
2022/03/21 06:27:34;;;;;;;18.33;10.23;;;4.20;83.80;;;;;;5026627;28;20482;-57
2022/03/21 06:30:01;;;;;;;17.40;10.07;;;4.20;83.70;;;;;;5025474;28;20477;-57
2022/03/21 06:32:26;;;;;;;17.60;10.63;;;4.20;82.90;;;;;;5026601;28;20029;-55
2022/03/21 06:34:52;;;;;;;17.73;9.35;;;4.20;84.20;;;;;;5026450;28;20084;-55
2022/03/21 06:37:18;;;;;;;;;;;4.20;84.20;;;;;;5027409;28;20083;-56
2022/03/21 06:39:44;;;;;;;18.35;10.27;;;4.20;84.40;;;;;;5027694;28;19913;-58
2022/03/21 06:42:11;;;;;;;18.95;10.90;;;4.30;86.10;;;;;;5027272;28;20456;-57
2022/03/21 06:44:37;;;;;;;17.92;10.75;;;4.30;84.50;;;;;;5070254;23;20055;-48
2022/03/21 06:47:03;;;;;;;19.83;10.70;;;4.40;85.90;;;;;;5045095;28;20056;-55
2022/03/21 06:49:30;;;;;;;19.65;12.70;;;4.40;83.70;;;;;;5027165;28;20447;-51
2022/03/21 06:52:02;;;;;;;17.02;10.15;;;4.50;84.80;;;;;;5027446;28;20112;-49
2022/03/21 06:54:29;;;;;;;17.15;10.32;;;4.60;83.40;;;;;;5029349;28;20028;-47
2022/03/21 06:56:54;;;;;;;17.73;10.75;;;4.60;83.40;;;;;;5034767;28;20079;-51
2022/03/21 06:59:19;;;;;;;19.30;11.23;;;4.70;82.40;;;;;;5030638;28;20551;-48
2022/03/21 07:01:45;;;;;;;21.15;11.05;;;4.80;81.50;;;;;;5026937;28;20389;-53
2022/03/21 07:04:10;;;;;;;14.75;10.40;;;4.80;81.00;;;;;;5028410;28;20079;-51
2022/03/21 07:06:36;;;;;;;18.83;10.50;;;4.90;81.00;;;;;;5026396;28;20392;-49
2022/03/21 07:09:02;;;;;;;15.52;10.40;;;5.00;80.80;;;;;;5029163;28;20061;-55
2022/03/21 07:11:29;;;;;;;20.58;10.02;;;5.00;78.60;;;;;;5028174;28;20111;-51
2022/03/21 07:13:55;;;;;;;16.58;10.70;;;5.00;79.40;;;;;;5027777;28;20067;-54
2022/03/21 07:16:20;;;;;;;18.95;10.88;;;5.10;77.90;;;;;;5027922;28;20116;-50
2022/03/21 07:18:47;;;;;;;20.13;11.15;;;5.10;76.90;;;;;;5027592;28;20099;-52
2022/03/21 07:21:14;;;;;;;16.55;9.65;;;5.10;77.70;;;;;;5027129;28;20037;-55
2022/03/21 07:23:40;;;;;;;17.27;11.65;;;5.10;77.30;;;;;;5034175;28;20032;-49
2022/03/21 07:26:05;;;;;;;17.95;10.77;;;5.20;78.40;;;;;;5029386;28;20021;-47
2022/03/21 07:28:31;;;;;;;19.70;10.43;;;5.20;79.20;;;;;;5029396;28;20057;-49
2022/03/21 07:30:57;;;;;;;18.67;11.27;;;5.30;79.20;;;;;;5028903;28;20095;-55
2022/03/21 07:33:24;;;;;;;19.35;11.95;;;5.40;79.20;;;;;;5027375;28;20395;-54
2022/03/21 07:35:50;;;;;;;22.42;12.50;;;5.50;77.60;;;;;;5033975;28;20069;-50
2022/03/21 07:38:18;;;;;;;21.63;11.40;;;5.50;77.70;;;;;;5030659;28;20029;-50
2022/03/21 07:40:46;;;;;;;16.45;10.65;;;5.60;79.20;;;;;;5029731;28;20030;-52
2022/03/21 07:43:12;;;;;;;18.45;11.63;;;5.60;78.00;;;;;;5034967;28;20039;-49
2022/03/21 07:48:23;;;;;;;19.00;11.57;;;5.80;76.10;;;;;;5038691;28;20170;-48
2022/03/21 07:50:49;;;;;;;18.30;9.70;;;5.80;76.50;;;;;;5035758;28;20450;-49
2022/03/21 07:53:14;;;;;;;19.08;13.45;;;5.90;76.90;;;;;;5037975;28;20122;-49
2022/03/21 07:55:40;;;;;;;20.08;10.95;;;5.90;74.90;;;;;;5037302;28;20491;-51
2022/03/21 07:58:05;;;;;;;18.67;11.68;;;6.00;76.00;;;;;;5039483;28;20386;-51
2022/03/21 08:00:31;;;;;;;17.80;10.30;;;6.00;74.70;;;;;;5038333;28;20044;-49
2022/03/21 08:02:58;;;;;;;20.00;11.93;;;6.00;74.00;;;;;;5037021;28;20505;-56
2022/03/21 08:05:26;;;;;;;16.90;10.20;;;6.00;73.30;;;;;;5031694;28;20029;-48
2022/03/21 08:07:52;;;;;;;20.13;12.70;;;6.00;73.30;;;;;;5031067;28;20498;-49
2022/03/21 08:10:19;;;;;;;36.05;15.82;;;6.00;73.80;;;;;;5029833;28;20030;-52
2022/03/21 08:12:46;;;;;;;18.55;11.80;;;6.10;74.00;;;;;;5034491;28;20048;-52
2022/03/21 08:15:13;;;;;;;16.02;11.45;;;6.20;73.30;;;;;;5032123;28;20037;-49
2022/03/21 08:17:56;;;;;;;16.45;10.95;;;6.30;72.80;;;;;;5040746;28;20025;-52
2022/03/21 08:20:22;;;;;;;17.77;11.30;;;6.30;73.30;;;;;;5031619;28;20033;-47
2022/03/21 08:22:49;;;;;;;17.83;11.80;;;6.40;74.70;;;;;;5031282;28;20033;-53
2022/03/21 08:25:16;;;;;;;15.07;11.27;;;6.60;75.50;;;;;;5030354;28;20386;-49
2022/03/21 08:27:43;;;;;;;22.58;11.98;;;6.70;70.60;;;;;;5040811;28;20053;-51
2022/03/21 08:30:11;;;;;;;17.73;11.90;;;6.80;71.70;;;;;;5029869;28;20041;-51
2022/03/21 08:32:36;;;;;;;18.52;11.32;;;6.90;69.80;;;;;;5031572;28;20037;-53
2022/03/21 08:35:02;;;;;;;18.40;11.15;;;6.90;72.50;;;;;;5028728;28;20037;-52
2022/03/21 08:37:28;;;;;;;18.13;10.75;;;7.10;72.00;;;;;;5028892;28;20037;-54
2022/03/21 08:39:53;;;;;;;19.50;11.27;;;7.10;67.90;;;;;;5029373;28;20033;-51
2022/03/21 08:42:19;;;;;;;15.80;11.05;;;7.10;67.20;;;;;;5027805;28;20053;-47
2022/03/21 08:44:45;;;;;;;18.90;10.63;;;7.20;68.00;;;;;;5028145;28;20029;-55
2022/03/21 08:47:10;;;;;;;;;;;7.20;67.00;;;;;;5030359;28;20029;-47
2022/03/21 08:49:37;;;;;;;21.08;11.57;;;7.40;68.10;;;;;;5028072;28;19916;-51
2022/03/21 08:52:05;;;;;;;14.88;10.68;;;7.50;65.90;;;;;;5034524;28;20091;-50
2022/03/21 08:54:30;;;;;;;19.30;12.35;;;7.60;65.40;;;;;;5037120;28;20497;-50
2022/03/21 08:56:56;;;;;;;17.58;10.48;;;7.70;66.30;;;;;;5034781;28;20037;-56
2022/03/21 08:59:22;;;;;;;14.77;9.93;;;7.70;64.00;;;;;;5035052;28;20116;-49
2022/03/21 09:01:48;;;;;;;21.02;11.68;;;7.70;63.00;;;;;;5037135;28;20497;-51
2022/03/21 09:04:13;;;;;;;18.10;12.15;;;7.80;65.90;;;;;;5032929;28;20037;-53
2022/03/21 09:06:39;;;;;;;;;;;7.90;62.20;;;;;;5038339;28;20025;-51
2022/03/21 09:09:05;;;;;;;15.23;9.82;;;8.00;63.10;;;;;;5036973;28;20289;-54
2022/03/21 09:11:30;;;;;;;;;;;8.00;61.80;;;;;;5033643;28;20021;-48
2022/03/21 09:13:56;;;;;;;16.40;11.50;;;8.10;61.00;;;;;;5032600;28;20387;-47
2022/03/21 09:16:22;;;;;;;17.20;9.98;;;8.20;60.70;;;;;;5027696;28;20044;-48
2022/03/21 09:18:47;;;;;;;19.20;10.80;;;8.30;60.20;;;;;;5031750;28;20567;-52
2022/03/21 09:21:13;;;;;;;19.98;11.02;;;8.40;60.00;;;;;;5026823;28;20052;-57
2022/03/21 09:23:39;;;;;;;21.95;12.00;;;8.50;60.70;;;;;;5029129;28;20340;-48
2022/03/21 09:26:05;;;;;;;16.73;12.65;;;8.60;59.50;;;;;;5030522;28;20394;-49
2022/03/21 09:28:32;;;;;;;21.05;12.25;;;8.70;60.90;;;;;;5033027;28;20147;-49
2022/03/21 09:30:58;;;;;;;19.17;12.52;;;8.80;58.50;;;;;;5026631;28;20040;-51
2022/03/21 09:33:25;;;;;;;15.35;10.52;;;8.80;58.00;;;;;;5027360;28;20049;-56
2022/03/21 09:35:51;;;;;;;16.83;12.32;;;8.90;58.20;;;;;;5027874;28;20382;-49
2022/03/21 09:38:17;;;;;;;35.95;22.17;;;8.90;57.60;;;;;;5026568;28;20036;-52
2022/03/21 09:40:43;;;;;;;19.80;12.93;;;9.00;57.70;;;;;;5028970;28;20049;-54
2022/03/21 09:43:11;;;;;;;18.92;13.07;;;9.10;57.60;;;;;;5027237;28;20045;-50
2022/03/21 09:45:37;;;;;;;17.35;11.57;;;9.30;57.10;;;;;;5035250;28;20036;-53
2022/03/21 09:48:12;;;;;;;24.35;13.80;;;9.40;55.40;;;;;;5029399;28;20038;-55
2022/03/21 09:50:42;;;;;;;26.67;16.65;;;9.40;56.70;;;;;;5031704;28;20123;-54
2022/03/21 09:53:15;;;;;;;26.67;16.75;;;9.50;58.10;;;;;;5029699;28;20757;-52
2022/03/21 09:55:42;;;;;;;16.60;11.60;;;9.60;55.70;;;;;;5033674;28;20588;-52
2022/03/21 09:58:10;;;;;;;20.63;12.82;;;9.70;55.10;;;;;;5031709;28;20152;-52
2022/03/21 10:00:37;;;;;;;18.30;12.52;;;9.80;55.70;;;;;;5030684;28;20080;-54
2022/03/21 10:03:03;;;;;;;20.73;12.00;;;9.90;55.30;;;;;;5033042;28;20406;-48
2022/03/21 10:05:34;;;;;;;17.92;11.60;;;10.00;53.40;;;;;;5030538;28;20049;-47
2022/03/21 10:08:18;;;;;;;17.95;12.55;;;10.10;56.30;;;;;;5029705;28;20037;-49
2022/03/21 10:10:57;;;;;;;29.40;13.15;;;10.20;53.70;;;;;;5032070;28;20090;-52
2022/03/21 10:13:24;;;;;;;18.38;11.98;;;10.30;55.00;;;;;;5028744;28;20563;-51
2022/03/21 10:16:08;;;;;;;19.23;12.73;;;10.40;53.60;;;;;;5027255;28;20497;-50
2022/03/21 10:18:34;;;;;;;17.88;12.77;;;10.50;52.90;;;;;;5027511;28;20035;-56
2022/03/21 10:21:29;;;;;;;;;;;10.50;53.20;;;;;;5027562;28;20032;-50
2022/03/21 10:24:07;;;;;;;18.38;10.75;;;10.50;53.50;;;;;;5018239;28;19978;-52
2022/03/21 10:26:42;;;;;;;16.58;11.68;;;10.80;52.80;;;;;;5028825;28;20029;-54
2022/03/21 10:29:10;;;;;;;25.67;12.13;;;10.90;53.00;;;;;;5034189;28;20037;-53
2022/03/21 10:31:42;;;;;;;16.38;10.73;;;11.00;51.90;;;;;;5032228;28;20057;-54
2022/03/21 10:34:13;;;;;;;17.45;11.85;;;11.10;51.60;;;;;;5032527;28;20033;-52
2022/03/21 10:37:04;;;;;;;15.57;11.65;;;11.10;49.50;;;;;;5035297;28;20036;-48
2022/03/21 10:39:34;;;;;;;15.45;11.52;;;11.10;50.70;;;;;;5036151;28;20022;-51
2022/03/21 10:42:03;;;;;;;15.48;11.98;;;11.10;49.70;;;;;;5033001;28;20171;-51
2022/03/21 10:44:29;;;;;;;16.85;12.60;;;11.10;50.40;;;;;;5032048;28;20033;-51
2022/03/21 10:46:55;;;;;;;;;;;11.20;52.40;;;;;;5027390;28;20063;-54
2022/03/21 10:49:34;;;;;;;18.33;12.75;;;11.40;51.50;;;;;;5027377;28;19916;-51
2022/03/21 10:52:01;;;;;;;20.00;13.32;;;11.50;51.80;;;;;;5027629;28;20029;-53
2022/03/21 10:54:40;;;;;;;15.15;11.05;;;11.70;51.10;;;;;;5026648;28;20075;-48
2022/03/21 10:57:24;;;;;;;17.60;11.43;;;11.90;50.50;;;;;;5026900;28;20117;-53
2022/03/21 10:59:49;;;;;;;16.15;12.65;;;12.00;48.90;;;;;;5029462;28;20115;-52
2022/03/21 11:02:17;;;;;;;;;;;12.00;49.00;;;;;;5026272;28;20508;-56
2022/03/21 11:04:44;;;;;;;17.58;11.68;;;12.00;49.50;;;;;;5025681;28;19913;-53
2022/03/21 11:07:11;;;;;;;15.20;11.73;;;12.00;49.70;;;;;;5025250;28;20025;-51
2022/03/21 11:09:39;;;;;;;18.40;12.07;;;12.10;49.10;;;;;;5036352;28;20026;-50
2022/03/21 11:12:07;;;;;;;19.15;12.60;;;12.20;49.30;;;;;;5032488;28;20029;-54
2022/03/21 11:14:40;;;;;;;21.27;13.20;;;12.20;48.70;;;;;;5029311;28;20052;-50
2022/03/21 11:17:07;;;;;;;17.83;13.45;;;12.30;49.40;;;;;;5031111;28;20036;-49
2022/03/21 11:19:33;;;;;;;22.98;13.55;;;12.40;49.50;;;;;;5040243;28;20033;-52
2022/03/21 11:22:00;;;;;;;22.90;11.73;;;12.50;47.90;;;;;;5045009;28;20025;-51
2022/03/21 11:24:28;;;;;;;18.38;12.05;;;12.50;48.20;;;;;;5035661;28;20084;-50
2022/03/21 11:27:02;;;;;;;18.10;11.60;;;12.50;47.10;;;;;;5033362;28;20025;-48
2022/03/21 11:29:56;;;;;;;19.90;12.65;;;12.50;47.00;;;;;;5030705;28;20030;-52
2022/03/21 11:32:40;;;;;;;17.02;11.93;;;12.60;47.10;;;;;;5034119;28;20160;-49
2022/03/21 11:35:17;;;;;;;16.00;11.18;;;12.70;46.80;;;;;;5033162;28;20073;-48
2022/03/21 11:37:43;;;;;;;16.52;11.48;;;12.80;46.70;;;;;;5035327;28;20113;-53
2022/03/21 11:40:27;;;;;;;;;;;12.90;47.50;;;;;;5032624;28;20104;-48
2022/03/21 11:43:14;;;;;;;26.58;13.57;;;12.90;46.80;;;;;;5031204;28;20006;-52
2022/03/21 11:45:40;;;;;;;;;;;13.00;46.70;;;;;;5026749;28;20489;-52
2022/03/21 11:48:17;;;;;;;14.25;10.57;;;13.10;46.90;;;;;;5029188;28;19913;-48
2022/03/21 11:50:44;;;;;;;17.17;11.85;;;13.10;46.20;;;;;;5032995;28;20083;-55
2022/03/21 11:53:11;;;;;;;16.30;12.85;;;13.30;46.60;;;;;;5037777;28;20471;-51
2022/03/21 11:55:41;;;;;;;18.02;14.15;;;13.40;45.60;;;;;;5040994;28;20028;-54
2022/03/21 11:58:22;;;;;;;19.83;15.07;;;13.40;44.70;;;;;;5036948;28;20037;-51
2022/03/21 12:01:16;;;;;;;23.52;15.40;;;13.30;44.40;;;;;;5032400;28;20037;-56
2022/03/21 12:03:43;;;;;;;16.90;12.65;;;13.30;44.60;;;;;;5038237;28;20052;-49
2022/03/21 12:06:23;;;;;;;17.65;11.73;;;13.30;45.60;;;;;;5038350;28;20302;-49
2022/03/21 12:08:58;;;;;;;16.45;12.45;;;13.50;45.80;;;;;;5037888;28;20026;-51
2022/03/21 12:11:39;;;;;;;15.00;11.57;;;13.50;44.80;;;;;;5030384;28;20033;-50
2022/03/21 12:14:37;;;;;;;17.70;13.02;;;13.50;44.30;;;;;;5037478;28;20025;-50
2022/03/21 12:17:05;;;;;;;18.23;13.10;;;13.30;44.40;;;;;;5035165;28;20048;-54
2022/03/21 12:19:46;;;;;;;17.30;12.75;;;13.40;46.30;;;;;;5033175;28;20047;-52
2022/03/21 12:22:27;;;;;;;17.05;13.43;;;13.60;45.70;;;;;;5034448;28;20067;-51
2022/03/21 12:24:53;;;;;;;17.77;12.55;;;13.70;45.70;;;;;;5027636;28;20048;-54
2022/03/21 12:27:45;;;;;;;22.63;13.90;;;13.80;45.00;;;;;;5029348;28;20025;-53
2022/03/21 12:30:31;;;;;;;20.50;12.65;;;13.80;44.60;;;;;;5028771;28;20041;-54
2022/03/21 12:33:15;;;;;;;16.65;13.15;;;13.90;44.70;;;;;;5031929;28;20039;-52
2022/03/21 12:35:45;;;;;;;14.63;12.02;;;13.90;44.20;;;;;;5033433;28;20040;-49
2022/03/21 12:38:14;;;;;;;21.83;14.23;;;14.00;45.30;;;;;;5027812;28;20082;-54
2022/03/21 12:40:58;;;;;;;21.33;13.70;;;14.00;43.50;;;;;;5030674;28;20033;-49
2022/03/21 12:43:29;;;;;;;18.30;13.52;;;13.90;44.30;;;;;;5032301;28;20021;-55
2022/03/21 12:46:06;;;;;;;19.77;13.15;;;13.90;44.50;;;;;;5030265;28;20491;-54
2022/03/21 12:48:34;;;;;;;23.38;14.32;;;14.00;43.70;;;;;;5029025;28;20367;-51
2022/03/21 12:51:00;;;;;;;25.58;16.17;;;14.00;44.10;;;;;;5029442;28;20482;-52
2022/03/21 12:53:36;;;;;;;20.20;14.45;;;14.10;44.30;;;;;;5029307;28;20237;-53
2022/03/21 12:56:07;;;;;;;20.58;13.75;;;14.10;44.70;;;;;;5030262;28;20120;-53
2022/03/21 12:58:33;;;;;;;23.77;15.80;;;14.20;43.60;;;;;;5033405;28;20032;-50
2022/03/21 13:01:01;;;;;;;;;;;14.20;43.70;;;;;;5031913;28;20029;-47
2022/03/21 13:03:27;;;;;;;50.60;31.60;;;14.30;44.30;;;;;;5028229;28;19909;-54
2022/03/21 13:11:29;;;;;;;22.27;15.57;;;14.50;43.50;;;;;;5028263;28;20044;-53
2022/03/21 13:13:58;;;;;;;23.15;17.02;;;14.60;43.20;;;;;;5039835;28;20052;-51